createdAt,value
2022-08-07T00:00:40.452Z,1001.86
2022-08-07T00:02:36.132Z,1001.84
2022-08-07T00:02:44.491Z,1001.79
2022-08-07T00:03:40.378Z,1001.84
2022-08-07T00:04:45.515Z,1001.80
2022-08-07T00:05:40.348Z,1001.82
2022-08-07T00:06:51.149Z,1001.75
2022-08-07T00:07:41.744Z,1001.80
2022-08-07T00:08:44.332Z,1001.82
2022-08-07T00:09:40.178Z,1001.84
2022-08-07T00:10:48.350Z,1001.81
2022-08-07T00:11:54.097Z,1001.82
2022-08-07T00:12:57.770Z,1001.79
2022-08-07T00:13:44.847Z,1001.78
2022-08-07T00:14:40.117Z,1001.82
2022-08-07T00:15:46.739Z,1001.78
2022-08-07T00:16:41.238Z,1001.77
2022-08-07T00:17:40.318Z,1001.79
2022-08-07T00:18:40.145Z,1001.81
2022-08-07T00:20:01.514Z,1001.79
2022-08-07T00:20:41.036Z,1001.75
2022-08-07T00:21:57.202Z,1001.79
2022-08-07T00:22:42.326Z,1001.78
2022-08-07T00:23:41.564Z,1001.75
2022-08-07T00:24:39.977Z,1001.75
2022-08-07T00:25:41.436Z,1001.80
2022-08-07T00:26:55.486Z,1001.73
2022-08-07T00:27:53.274Z,1001.78
2022-08-07T00:28:45.587Z,1001.72
2022-08-07T00:29:40.930Z,1001.77
2022-08-07T00:30:39.907Z,1001.77
2022-08-07T00:31:41.545Z,1001.77
2022-08-07T00:32:40.055Z,1001.79
2022-08-07T00:33:39.856Z,1001.79
2022-08-07T00:34:39.916Z,1001.78
2022-08-07T00:35:39.969Z,1001.74
2022-08-07T00:36:43.258Z,1001.72
2022-08-07T00:37:48.143Z,1001.76
2022-08-07T00:38:41.025Z,1001.73
2022-08-07T00:39:45.128Z,1001.76
2022-08-07T00:40:40.955Z,1001.73
2022-08-07T00:41:53.227Z,1001.73
2022-08-07T00:42:40.775Z,1001.74
2022-08-07T00:44:00.754Z,1001.73
2022-08-07T00:44:41.549Z,1001.69
2022-08-07T00:45:39.827Z,1001.69
2022-08-07T00:46:39.784Z,1001.67
2022-08-07T00:48:09.203Z,1001.67
2022-08-07T00:48:42.232Z,1001.62
2022-08-07T00:50:19.536Z,1001.62
2022-08-07T00:50:50.694Z,1001.60
2022-08-07T00:51:58.455Z,1001.64
2022-08-07T00:52:40.645Z,1001.59
2022-08-07T00:53:50.443Z,1001.57
2022-08-07T00:54:40.883Z,1001.62
2022-08-07T00:56:03.371Z,1001.61
2022-08-07T00:56:40.574Z,1001.57
2022-08-07T00:57:44.390Z,1001.58
2022-08-07T00:58:40.555Z,1001.61
2022-08-07T00:59:39.676Z,1001.62
2022-08-07T01:00:39.653Z,1001.60
2022-08-07T01:01:44.092Z,1001.57
2022-08-07T01:02:39.662Z,1001.61
2022-08-07T01:03:55.801Z,1001.57
2022-08-07T01:04:43.218Z,1001.57
2022-08-07T01:05:39.471Z,1001.58
2022-08-07T01:06:40.436Z,1001.54
2022-08-07T01:07:39.619Z,1001.58
2022-08-07T01:08:43.239Z,1001.51
2022-08-07T01:10:05.260Z,1001.50
2022-08-07T01:10:40.383Z,1001.56
2022-08-07T01:12:10.276Z,1001.48
2022-08-07T01:12:43.975Z,1001.47
2022-08-07T01:13:40.462Z,1001.51
2022-08-07T01:14:40.333Z,1001.49
2022-08-07T01:16:03.123Z,1001.53
2022-08-07T01:16:43.095Z,1001.50
2022-08-07T01:17:41.092Z,1001.53
2022-08-07T01:18:39.343Z,1001.54
2022-08-07T01:19:39.932Z,1001.50
2022-08-07T01:20:43.250Z,1001.54
2022-08-07T01:21:39.249Z,1001.51
2022-08-07T01:22:46.633Z,1001.47
2022-08-07T01:23:43.774Z,1001.50
2022-08-07T01:24:40.203Z,1001.45
2022-08-07T01:25:53.807Z,1001.47
2022-08-07T01:26:40.274Z,1001.48
2022-08-07T01:27:39.405Z,1001.46
2022-08-07T01:28:40.157Z,1001.51
2022-08-07T01:29:40.142Z,1001.49
2022-08-07T01:30:39.121Z,1001.45
2022-08-07T01:31:42.392Z,1001.50
2022-08-07T01:32:39.361Z,1001.48
2022-08-07T01:33:53.632Z,1001.45
2022-08-07T01:34:40.170Z,1001.45
2022-08-07T01:35:54.376Z,1001.45
2022-08-07T01:36:40.548Z,1001.48
2022-08-07T01:37:39.335Z,1001.46
2022-08-07T01:38:39.141Z,1001.52
2022-08-07T01:39:40.521Z,1001.52
2022-08-07T01:40:40.208Z,1001.49
2022-08-07T01:41:39.142Z,1001.49
2022-08-07T01:42:58.857Z,1001.44
2022-08-07T01:43:39.964Z,1001.43
2022-08-07T01:44:38.947Z,1001.45
2022-08-07T01:45:40.151Z,1001.41
2022-08-07T01:46:38.932Z,1001.41
2022-08-07T01:48:20.850Z,1001.41
2022-08-07T01:48:41.159Z,1001.37
2022-08-07T01:49:38.881Z,1001.43
2022-08-07T01:50:43.048Z,1001.41
2022-08-07T01:52:03.870Z,1001.39
2022-08-07T01:52:40.854Z,1001.37
2022-08-07T01:54:12.683Z,1001.37
2022-08-07T01:54:39.823Z,1001.37
2022-08-07T01:55:38.927Z,1001.33
2022-08-07T01:56:38.991Z,1001.36
2022-08-07T01:58:06.318Z,1001.39
2022-08-07T01:58:40.928Z,1001.37
2022-08-07T01:59:38.764Z,1001.34
2022-08-07T02:00:49.378Z,1001.34
2022-08-07T02:02:02.053Z,1001.35
2022-08-07T02:03:19.320Z,1001.38
2022-08-07T02:03:42.897Z,1001.41
2022-08-07T02:04:39.752Z,1001.35
2022-08-07T02:05:47.968Z,1001.36
2022-08-07T02:06:39.666Z,1001.33
2022-08-07T02:07:50.259Z,1001.30
2022-08-07T02:08:39.642Z,1001.34
2022-08-07T02:09:53.243Z,1001.30
2022-08-07T02:10:42.079Z,1001.24
2022-08-07T02:12:04.193Z,1001.37
2022-08-07T02:12:39.619Z,1001.28
2022-08-07T02:13:58.043Z,1001.32
2022-08-07T02:14:41.144Z,1001.25
2022-08-07T02:15:38.559Z,1001.30
2022-08-07T02:16:38.539Z,1001.29
2022-08-07T02:17:38.553Z,1001.31
2022-08-07T02:18:38.554Z,1001.31
2022-08-07T02:20:04.500Z,1001.31
2022-08-07T02:20:39.488Z,1001.32
2022-08-07T02:21:55.964Z,1001.32
2022-08-07T02:22:41.190Z,1001.29
2022-08-07T02:23:38.440Z,1001.25
2022-08-07T02:24:38.418Z,1001.27
2022-08-07T02:26:31.473Z,1001.25
2022-08-07T02:26:39.399Z,1001.25
2022-08-07T02:27:41.126Z,1001.22
2022-08-07T02:28:38.390Z,1001.22
2022-08-07T02:29:48.798Z,1001.25
2022-08-07T02:30:39.349Z,1001.24
2022-08-07T02:31:38.349Z,1001.25
2022-08-07T02:32:39.378Z,1001.25
2022-08-07T02:33:57.208Z,1001.24
2022-08-07T02:34:39.327Z,1001.26
2022-08-07T02:36:28.520Z,1001.21
2022-08-07T02:36:39.281Z,1001.19
2022-08-07T02:37:38.287Z,1001.20
2022-08-07T02:38:39.280Z,1001.18
2022-08-07T02:39:43.290Z,1001.21
2022-08-07T02:40:38.290Z,1001.27
2022-08-07T02:41:38.314Z,1001.18
2022-08-07T02:42:38.227Z,1001.21
2022-08-07T02:43:39.444Z,1001.22
2022-08-07T02:44:38.176Z,1001.19
2022-08-07T02:45:59.408Z,1001.23
2022-08-07T02:46:46.754Z,1001.21
2022-08-07T02:47:45.080Z,1001.24
2022-08-07T02:48:39.176Z,1001.23
2022-08-07T02:49:56.377Z,1001.23
2022-08-07T02:50:39.095Z,1001.21
2022-08-07T02:51:49.863Z,1001.20
2022-08-07T02:52:39.107Z,1001.22
2022-08-07T02:53:38.796Z,1001.22
2022-08-07T02:54:38.056Z,1001.23
2022-08-07T02:56:02.990Z,1001.21
2022-08-07T02:56:39.025Z,1001.20
2022-08-07T02:57:37.997Z,1001.19
2022-08-07T02:58:39.815Z,1001.21
2022-08-07T02:59:38.985Z,1001.21
2022-08-07T03:00:39.254Z,1001.21
2022-08-07T03:01:40.242Z,1001.22
2022-08-07T03:02:37.937Z,1001.20
2022-08-07T03:03:49.030Z,1001.19
2022-08-07T03:04:38.916Z,1001.17
2022-08-07T03:05:38.143Z,1001.15
2022-08-07T03:06:38.758Z,1001.16
2022-08-07T03:08:04.557Z,1001.09
2022-08-07T03:08:39.236Z,1001.16
2022-08-07T03:09:41.783Z,1001.16
2022-08-07T03:10:40.915Z,1001.13
2022-08-07T03:11:51.723Z,1001.19
2022-08-07T03:12:38.806Z,1001.19
2022-08-07T03:13:39.345Z,1001.21
2022-08-07T03:14:38.785Z,1001.21
2022-08-07T03:15:55.746Z,1001.21
2022-08-07T03:16:38.963Z,1001.21
2022-08-07T03:17:52.983Z,1001.21
2022-08-07T03:18:38.763Z,1001.17
2022-08-07T03:19:38.677Z,1001.22
2022-08-07T03:20:37.677Z,1001.23
2022-08-07T03:21:37.686Z,1001.21
2022-08-07T03:22:38.684Z,1001.17
2022-08-07T03:24:19.442Z,1001.17
2022-08-07T03:24:38.615Z,1001.16
2022-08-07T03:25:40.492Z,1001.18
2022-08-07T03:26:43.141Z,1001.16
2022-08-07T03:28:09.004Z,1001.19
2022-08-07T03:28:39.451Z,1001.19
2022-08-07T03:29:37.735Z,1001.17
2022-08-07T03:30:37.532Z,1001.19
2022-08-07T03:31:42.678Z,1001.16
2022-08-07T03:32:38.740Z,1001.18
2022-08-07T03:33:40.101Z,1001.14
2022-08-07T03:34:39.509Z,1001.15
2022-08-07T03:35:50.007Z,1001.11
2022-08-07T03:36:38.450Z,1001.17
2022-08-07T03:37:46.284Z,1001.15
2022-08-07T03:38:38.483Z,1001.13
2022-08-07T03:39:45.823Z,1001.14
2022-08-07T03:40:38.431Z,1001.13
2022-08-07T03:41:42.420Z,1001.12
2022-08-07T03:42:38.375Z,1001.13
2022-08-07T03:43:37.387Z,1001.12
2022-08-07T03:44:37.356Z,1001.09
2022-08-07T03:45:39.792Z,1001.11
2022-08-07T03:47:13.989Z,1001.10
2022-08-07T03:47:48.030Z,1001.16
2022-08-07T03:49:01.931Z,1001.10
2022-08-07T03:49:38.283Z,1001.09
2022-08-07T03:50:37.299Z,1001.15
2022-08-07T03:51:47.253Z,1001.14
2022-08-07T03:52:38.247Z,1001.15
2022-08-07T03:54:05.488Z,1001.18
2022-08-07T03:54:54.095Z,1001.15
2022-08-07T03:55:57.477Z,1001.15
2022-08-07T03:56:38.181Z,1001.17
2022-08-07T03:58:35.343Z,1001.18
2022-08-07T03:59:07.285Z,1001.18
2022-08-07T03:59:46.380Z,1001.20
2022-08-07T04:00:38.157Z,1001.19
2022-08-07T04:01:38.194Z,1001.19
2022-08-07T04:02:41.281Z,1001.24
2022-08-07T04:03:38.888Z,1001.24
2022-08-07T04:04:38.087Z,1001.20
2022-08-07T04:05:40.845Z,1001.18
2022-08-07T04:06:38.843Z,1001.18
2022-08-07T04:07:42.630Z,1001.20
2022-08-07T04:08:38.051Z,1001.20
2022-08-07T04:09:44.704Z,1001.22
2022-08-07T04:10:38.767Z,1001.22
2022-08-07T04:12:25.549Z,1001.19
2022-08-07T04:12:38.015Z,1001.22
2022-08-07T04:14:10.900Z,1001.24
2022-08-07T04:14:46.403Z,1001.21
2022-08-07T04:15:37.930Z,1001.22
2022-08-07T04:16:36.940Z,1001.25
2022-08-07T04:18:31.940Z,1001.22
2022-08-07T04:18:59.166Z,1001.22
2022-08-07T04:19:51.873Z,1001.18
2022-08-07T04:20:37.904Z,1001.22
2022-08-07T04:21:37.868Z,1001.20
2022-08-07T04:22:36.889Z,1001.26
2022-08-07T04:23:43.763Z,1001.26
2022-08-07T04:24:39.009Z,1001.21
2022-08-07T04:25:39.472Z,1001.23
2022-08-07T04:26:36.806Z,1001.26
2022-08-07T04:27:44.189Z,1001.24
2022-08-07T04:28:37.770Z,1001.21
2022-08-07T04:29:58.140Z,1001.25
2022-08-07T04:30:55.591Z,1001.27
2022-08-07T04:31:39.134Z,1001.22
2022-08-07T04:32:37.783Z,1001.27
2022-08-07T04:33:36.709Z,1001.20
2022-08-07T04:34:36.687Z,1001.24
2022-08-07T04:35:36.679Z,1001.20
2022-08-07T04:36:36.686Z,1001.21
2022-08-07T04:38:01.208Z,1001.22
2022-08-07T04:38:38.006Z,1001.21
2022-08-07T04:39:36.710Z,1001.20
2022-08-07T04:40:43.842Z,1001.18
2022-08-07T04:41:37.678Z,1001.21
2022-08-07T04:42:36.637Z,1001.18
2022-08-07T04:44:11.784Z,1001.16
2022-08-07T04:44:37.571Z,1001.13
2022-08-07T04:45:57.828Z,1001.17
2022-08-07T04:46:39.990Z,1001.16
2022-08-07T04:47:57.079Z,1001.17
2022-08-07T04:48:37.517Z,1001.21
2022-08-07T04:49:38.417Z,1001.21
2022-08-07T04:50:36.486Z,1001.21
2022-08-07T04:51:36.477Z,1001.21
2022-08-07T04:52:36.464Z,1001.25
2022-08-07T04:54:01.124Z,1001.24
2022-08-07T04:54:37.429Z,1001.26
2022-08-07T04:58:10.890Z,1001.30
2022-08-07T04:58:12.435Z,1001.25
2022-08-07T04:58:16.567Z,1001.31
2022-08-07T04:59:07.673Z,1001.30
2022-08-07T05:00:14.490Z,1001.30
2022-08-07T05:00:37.441Z,1001.28
2022-08-07T05:01:36.429Z,1001.24
2022-08-07T05:02:36.351Z,1001.27
2022-08-07T05:04:00.413Z,1001.23
2022-08-07T05:04:37.305Z,1001.18
2022-08-07T05:05:53.975Z,1001.20
2022-08-07T05:06:43.431Z,1001.23
2022-08-07T05:07:44.292Z,1001.29
2022-08-07T05:09:00.213Z,1001.24
2022-08-07T05:09:45.518Z,1001.27
2022-08-07T05:10:37.235Z,1001.27
2022-08-07T05:11:57.171Z,1001.29
2022-08-07T05:12:37.293Z,1001.25
2022-08-07T05:14:53.681Z,1001.24
2022-08-07T05:14:54.448Z,1001.22
2022-08-07T05:15:37.165Z,1001.27
2022-08-07T05:16:36.226Z,1001.25
2022-08-07T05:17:51.548Z,1001.21
2022-08-07T05:18:37.146Z,1001.23
2022-08-07T05:19:44.838Z,1001.18
2022-08-07T05:20:37.094Z,1001.16
2022-08-07T05:22:00.873Z,1001.18
2022-08-07T05:22:37.073Z,1001.22
2022-08-07T05:23:36.078Z,1001.22
2022-08-07T05:24:40.347Z,1001.25
2022-08-07T05:26:10.869Z,1001.26
2022-08-07T05:26:37.013Z,1001.25
2022-08-07T05:28:03.387Z,1001.27
2022-08-07T05:28:40.505Z,1001.28
2022-08-07T05:29:39.136Z,1001.32
2022-08-07T05:30:36.992Z,1001.30
2022-08-07T05:31:37.746Z,1001.31
2022-08-07T05:32:35.943Z,1001.30
2022-08-07T05:33:36.936Z,1001.32
2022-08-07T05:34:36.082Z,1001.35
2022-08-07T05:35:41.852Z,1001.33
2022-08-07T05:36:39.085Z,1001.39
2022-08-07T05:37:40.867Z,1001.35
2022-08-07T05:38:59.955Z,1001.35
2022-08-07T05:40:06.900Z,1001.39
2022-08-07T05:40:36.972Z,1001.35
2022-08-07T05:42:01.044Z,1001.31
2022-08-07T05:42:37.091Z,1001.38
2022-08-07T05:43:50.237Z,1001.38
2022-08-07T05:44:37.091Z,1001.38
2022-08-07T05:45:47.442Z,1001.36
2022-08-07T05:46:36.764Z,1001.38
2022-08-07T05:48:00.053Z,1001.40
2022-08-07T05:48:36.752Z,1001.44
2022-08-07T05:49:38.944Z,1001.45
2022-08-07T05:50:35.851Z,1001.46
2022-08-07T05:51:39.936Z,1001.47
2022-08-07T05:52:35.682Z,1001.48
2022-08-07T05:54:12.001Z,1001.50
2022-08-07T05:54:44.339Z,1001.49
2022-08-07T05:56:03.196Z,1001.44
2022-08-07T05:56:36.633Z,1001.44
2022-08-07T05:57:37.923Z,1001.44
2022-08-07T05:58:37.428Z,1001.43
2022-08-07T05:59:47.278Z,1001.45
2022-08-07T06:00:36.571Z,1001.42
2022-08-07T06:01:36.114Z,1001.44
2022-08-07T06:02:35.593Z,1001.40
2022-08-07T06:03:54.005Z,1001.46
2022-08-07T06:04:36.520Z,1001.43
2022-08-07T06:05:35.610Z,1001.42
2022-08-07T06:06:36.492Z,1001.39
2022-08-07T06:08:13.109Z,1001.41
2022-08-07T06:08:42.293Z,1001.43
2022-08-07T06:10:03.812Z,1001.41
2022-08-07T06:10:36.690Z,1001.42
2022-08-07T06:11:36.291Z,1001.42
2022-08-07T06:12:35.482Z,1001.46
2022-08-07T06:14:11.446Z,1001.45
2022-08-07T06:14:36.417Z,1001.46
2022-08-07T06:15:38.552Z,1001.48
2022-08-07T06:16:36.389Z,1001.49
2022-08-07T06:17:37.381Z,1001.53
2022-08-07T06:18:35.472Z,1001.54
2022-08-07T06:19:58.113Z,1001.49
2022-08-07T06:20:50.816Z,1001.54
2022-08-07T06:22:16.733Z,1001.51
2022-08-07T06:22:40.243Z,1001.53
2022-08-07T06:24:37.566Z,1001.55
2022-08-07T06:24:37.691Z,1001.50
2022-08-07T06:25:36.165Z,1001.58
2022-08-07T06:26:35.242Z,1001.50
2022-08-07T06:27:59.700Z,1001.54
2022-08-07T06:28:36.230Z,1001.54
2022-08-07T06:29:35.190Z,1001.54
2022-08-07T06:30:38.604Z,1001.48
2022-08-07T06:31:46.692Z,1001.46
2022-08-07T06:32:36.158Z,1001.51
2022-08-07T06:33:39.449Z,1001.52
2022-08-07T06:34:35.137Z,1001.47
2022-08-07T06:35:45.569Z,1001.49
2022-08-07T06:36:36.240Z,1001.46
2022-08-07T06:37:44.311Z,1001.41
2022-08-07T06:38:36.290Z,1001.46
2022-08-07T06:40:17.766Z,1001.41
2022-08-07T06:40:36.181Z,1001.43
2022-08-07T06:42:00.552Z,1001.42
2022-08-07T06:42:36.149Z,1001.42
2022-08-07T06:43:39.528Z,1001.40
2022-08-07T06:44:36.800Z,1001.44
2022-08-07T06:45:35.726Z,1001.46
2022-08-07T06:46:35.609Z,1001.45
2022-08-07T06:47:48.337Z,1001.45
2022-08-07T06:48:36.089Z,1001.42
2022-08-07T06:49:35.500Z,1001.43
2022-08-07T06:50:35.970Z,1001.41
2022-08-07T06:51:34.988Z,1001.41
2022-08-07T06:52:35.763Z,1001.37
2022-08-07T06:55:29.149Z,1001.40
2022-08-07T06:55:31.676Z,1001.36
2022-08-07T06:55:59.868Z,1001.35
2022-08-07T06:56:35.839Z,1001.39
2022-08-07T06:57:43.520Z,1001.36
2022-08-07T06:58:35.918Z,1001.36
2022-08-07T07:00:13.438Z,1001.33
2022-08-07T07:00:35.811Z,1001.37
2022-08-07T07:01:42.138Z,1001.33
2022-08-07T07:02:54.371Z,1001.32
2022-08-07T07:03:47.990Z,1001.32
2022-08-07T07:04:35.773Z,1001.32
2022-08-07T07:06:03.376Z,1001.35
2022-08-07T07:06:39.400Z,1001.35
2022-08-07T07:07:59.357Z,1001.27
2022-08-07T07:08:35.709Z,1001.31
2022-08-07T07:09:36.193Z,1001.28
2022-08-07T07:10:34.649Z,1001.32
2022-08-07T07:12:08.357Z,1001.30
2022-08-07T07:12:35.627Z,1001.27
2022-08-07T07:13:56.555Z,1001.28
2022-08-07T07:14:35.601Z,1001.27
2022-08-07T07:15:36.108Z,1001.26
2022-08-07T07:16:45.241Z,1001.27
2022-08-07T07:17:38.884Z,1001.26
2022-08-07T07:18:47.023Z,1001.28
2022-08-07T07:19:57.727Z,1001.25
2022-08-07T07:20:35.760Z,1001.29
2022-08-07T07:22:04.081Z,1001.23
2022-08-07T07:22:39.904Z,1001.23
2022-08-07T07:24:06.410Z,1001.23
2022-08-07T07:24:35.470Z,1001.25
2022-08-07T07:26:35.787Z,1001.21
2022-08-07T07:26:37.138Z,1001.24
2022-08-07T07:27:35.845Z,1001.28
2022-08-07T07:28:48.530Z,1001.28
2022-08-07T07:29:56.781Z,1001.26
2022-08-07T07:30:39.621Z,1001.31
2022-08-07T07:31:40.154Z,1001.26
2022-08-07T07:32:35.362Z,1001.25
2022-08-07T07:33:34.392Z,1001.30
2022-08-07T07:34:34.347Z,1001.23
2022-08-07T07:35:54.199Z,1001.20
2022-08-07T07:36:35.310Z,1001.17
2022-08-07T07:37:49.542Z,1001.22
2022-08-07T07:38:36.104Z,1001.19
2022-08-07T07:39:45.472Z,1001.24
2022-08-07T07:40:35.264Z,1001.16
2022-08-07T07:42:01.916Z,1001.14
2022-08-07T07:42:35.231Z,1001.14
2022-08-07T07:44:14.614Z,1001.19
2022-08-07T07:44:35.240Z,1001.22
2022-08-07T07:46:37.965Z,1001.18
2022-08-07T07:46:38.103Z,1001.15
2022-08-07T07:47:52.208Z,1001.16
2022-08-07T07:48:36.260Z,1001.10
2022-08-07T07:50:33.453Z,1001.12
2022-08-07T07:50:38.640Z,1001.13
2022-08-07T07:51:57.950Z,1001.07
2022-08-07T07:52:35.105Z,1001.09
2022-08-07T07:53:34.959Z,1001.09
2022-08-07T07:54:34.112Z,1001.07
2022-08-07T07:55:37.179Z,1001.07
2022-08-07T07:56:34.093Z,1001.08
2022-08-07T07:57:53.384Z,1001.06
2022-08-07T07:58:37.139Z,1001.06
2022-08-07T07:59:53.681Z,1001.08
2022-08-07T08:00:35.883Z,1001.06
2022-08-07T08:02:02.128Z,1001.02
2022-08-07T08:02:35.690Z,1001.02
2022-08-07T08:04:06.123Z,1001.06
2022-08-07T08:04:34.993Z,1001.03
2022-08-07T08:05:51.171Z,1000.97
2022-08-07T08:06:34.925Z,1000.97
2022-08-07T08:07:35.745Z,1000.95
2022-08-07T08:08:36.904Z,1000.98
2022-08-07T08:09:33.925Z,1000.96
2022-08-07T08:10:38.052Z,1000.98
2022-08-07T08:11:59.128Z,1000.88
2022-08-07T08:12:52.055Z,1000.87
2022-08-07T08:13:52.705Z,1000.91
2022-08-07T08:14:36.121Z,1000.86
2022-08-07T08:15:58.144Z,1000.88
2022-08-07T08:16:35.185Z,1000.88
2022-08-07T08:17:57.221Z,1000.88
2022-08-07T08:18:34.766Z,1000.86
2022-08-07T08:20:19.385Z,1000.88
2022-08-07T08:20:34.753Z,1000.86
2022-08-07T08:22:00.686Z,1000.83
2022-08-07T08:22:34.718Z,1000.83
2022-08-07T08:23:34.808Z,1000.88
2022-08-07T08:24:36.265Z,1000.86
2022-08-07T08:25:42.752Z,1000.84
2022-08-07T08:26:34.681Z,1000.86
2022-08-07T08:27:33.788Z,1000.84
2022-08-07T08:28:37.867Z,1000.83
2022-08-07T08:29:34.658Z,1000.82
2022-08-07T08:30:35.096Z,1000.83
2022-08-07T08:32:17.423Z,1000.83
2022-08-07T08:32:38.168Z,1000.79
2022-08-07T08:33:33.579Z,1000.80
2022-08-07T08:34:33.589Z,1000.77
2022-08-07T08:35:39.298Z,1000.83
2022-08-07T08:36:34.729Z,1000.77
2022-08-07T08:38:01.266Z,1000.78
2022-08-07T08:38:41.115Z,1000.77
2022-08-07T08:39:39.667Z,1000.74
2022-08-07T08:40:34.480Z,1000.76
2022-08-07T08:41:57.718Z,1000.72
2022-08-07T08:42:34.650Z,1000.75
2022-08-07T08:43:42.660Z,1000.73
2022-08-07T08:44:38.312Z,1000.73
2022-08-07T08:45:41.835Z,1000.71
2022-08-07T08:46:34.561Z,1000.70
2022-08-07T08:47:34.434Z,1000.75
2022-08-07T08:48:36.182Z,1000.78
2022-08-07T08:50:02.189Z,1000.72
2022-08-07T08:50:40.016Z,1000.74
2022-08-07T08:52:00.974Z,1000.72
2022-08-07T08:52:35.956Z,1000.71
2022-08-07T08:53:34.313Z,1000.78
2022-08-07T08:54:33.420Z,1000.78
2022-08-07T08:55:54.532Z,1000.73
2022-08-07T08:56:34.274Z,1000.74
2022-08-07T08:57:34.168Z,1000.76
2022-08-07T08:58:33.247Z,1000.81
2022-08-07T08:59:42.023Z,1000.78
2022-08-07T09:00:34.224Z,1000.79
2022-08-07T09:01:40.104Z,1000.74
2022-08-07T09:02:34.764Z,1000.73
2022-08-07T09:03:47.430Z,1000.66
2022-08-07T09:04:34.225Z,1000.72
2022-08-07T09:05:37.514Z,1000.67
2022-08-07T09:06:33.155Z,1000.66
2022-08-07T09:07:34.074Z,1000.68
2022-08-07T09:08:34.117Z,1000.68
2022-08-07T09:09:36.608Z,1000.65
2022-08-07T09:10:33.086Z,1000.69
2022-08-07T09:11:43.433Z,1000.65
2022-08-07T09:12:34.067Z,1000.63
2022-08-07T09:13:37.059Z,1000.65
2022-08-07T09:14:34.067Z,1000.63
2022-08-07T09:16:23.931Z,1000.65
2022-08-07T09:16:34.058Z,1000.63
2022-08-07T09:17:34.032Z,1000.64
2022-08-07T09:18:36.618Z,1000.61
2022-08-07T09:19:51.533Z,1000.60
2022-08-07T09:20:35.369Z,1000.63
2022-08-07T09:21:57.640Z,1000.59
2022-08-07T09:24:31.343Z,1000.64
2022-08-07T09:24:34.081Z,1000.64
2022-08-07T09:24:55.541Z,1000.61
2022-08-07T09:25:33.895Z,1000.61
2022-08-07T09:26:32.878Z,1000.58
2022-08-07T09:27:38.288Z,1000.55
2022-08-07T09:30:01.699Z,1000.52
2022-08-07T09:30:06.491Z,1000.52
2022-08-07T09:30:33.910Z,1000.44
2022-08-07T09:31:38.332Z,1000.46
2022-08-07T09:32:34.049Z,1000.44
2022-08-07T09:33:52.972Z,1000.45
2022-08-07T09:34:54.772Z,1000.41
2022-08-07T09:36:04.549Z,1000.41
2022-08-07T09:36:36.939Z,1000.36
2022-08-07T09:37:48.547Z,1000.36
2022-08-07T09:38:33.842Z,1000.45
2022-08-07T09:39:53.953Z,1000.38
2022-08-07T09:40:33.772Z,1000.33
2022-08-07T09:41:36.215Z,1000.33
2022-08-07T09:42:33.950Z,1000.33
2022-08-07T09:44:03.066Z,1000.31
2022-08-07T09:44:58.605Z,1000.33
2022-08-07T09:47:25.812Z,1000.28
2022-08-07T09:47:29.040Z,1000.27
2022-08-07T09:47:58.914Z,1000.21
2022-08-07T09:48:45.328Z,1000.25
2022-08-07T09:50:02.272Z,1000.23
2022-08-07T09:50:33.565Z,1000.23
2022-08-07T09:52:10.622Z,1000.26
2022-08-07T09:52:35.248Z,1000.25
2022-08-07T09:53:41.422Z,1000.28
2022-08-07T09:54:34.416Z,1000.25
2022-08-07T09:56:02.782Z,1000.25
2022-08-07T09:56:39.194Z,1000.22
2022-08-07T09:57:36.715Z,1000.18
2022-08-07T09:58:32.914Z,1000.20
2022-08-07T09:59:35.792Z,1000.19
2022-08-07T10:00:34.390Z,1000.29
2022-08-07T10:01:51.130Z,1000.23
2022-08-07T10:02:33.420Z,1000.18
2022-08-07T10:04:05.662Z,1000.16
2022-08-07T10:04:33.596Z,1000.20
2022-08-07T10:05:59.669Z,1000.17
2022-08-07T10:06:35.715Z,1000.15
2022-08-07T10:07:53.384Z,1000.14
2022-08-07T10:08:33.428Z,1000.15
2022-08-07T10:09:42.763Z,1000.15
2022-08-07T10:10:53.779Z,1000.11
2022-08-07T10:12:02.067Z,1000.14
2022-08-07T10:12:33.542Z,1000.17
2022-08-07T10:14:01.336Z,1000.10
2022-08-07T10:14:33.602Z,1000.19
2022-08-07T10:15:37.557Z,1000.16
2022-08-07T10:16:33.481Z,1000.10
2022-08-07T10:18:01.103Z,1000.08
2022-08-07T10:18:33.292Z,1000.05
2022-08-07T10:19:38.479Z,1000.07
2022-08-07T10:20:33.237Z,1000.04
2022-08-07T10:22:14.905Z,1000.03
2022-08-07T10:22:33.286Z,1000.02
2022-08-07T10:24:05.007Z,999.97
2022-08-07T10:24:33.508Z,999.99
2022-08-07T10:25:43.234Z,999.95
2022-08-07T10:26:33.175Z,999.92
2022-08-07T10:27:45.914Z,999.91
2022-08-07T10:28:33.504Z,999.91
2022-08-07T10:29:32.424Z,999.92
2022-08-07T10:30:32.504Z,999.92
2022-08-07T10:31:38.692Z,999.93
2022-08-07T10:32:51.193Z,999.94
2022-08-07T10:34:13.985Z,999.95
2022-08-07T10:34:33.047Z,999.95
2022-08-07T10:35:56.561Z,999.93
2022-08-07T10:36:36.144Z,999.98
2022-08-07T10:38:00.449Z,999.90
2022-08-07T10:38:35.860Z,999.90
2022-08-07T10:39:41.330Z,999.89
2022-08-07T10:40:32.971Z,999.92
2022-08-07T10:41:46.445Z,999.89
2022-08-07T10:42:36.570Z,999.92
2022-08-07T10:43:34.829Z,999.89
2022-08-07T10:44:38.721Z,999.90
2022-08-07T10:45:57.128Z,999.86
2022-08-07T10:46:32.867Z,999.85
2022-08-07T10:47:53.780Z,999.83
2022-08-07T10:48:34.584Z,999.84
2022-08-07T10:49:49.537Z,999.82
2022-08-07T10:50:32.810Z,999.75
2022-08-07T10:51:57.394Z,999.75
2022-08-07T10:52:33.943Z,999.75
2022-08-07T10:53:44.426Z,999.74
2022-08-07T10:54:32.797Z,999.76
2022-08-07T10:55:38.737Z,999.77
2022-08-07T10:56:33.641Z,999.74
2022-08-07T10:57:34.276Z,999.72
2022-08-07T10:58:33.384Z,999.71
2022-08-07T10:59:32.723Z,999.70
2022-08-07T11:00:36.986Z,999.67
2022-08-07T11:01:35.649Z,999.70
2022-08-07T11:02:34.341Z,999.72
2022-08-07T11:03:37.763Z,999.70
2022-08-07T11:04:34.488Z,999.68
2022-08-07T11:05:35.843Z,999.68
2022-08-07T11:06:32.794Z,999.70
2022-08-07T11:07:59.589Z,999.69
2022-08-07T11:08:32.585Z,999.68
2022-08-07T11:10:09.374Z,999.67
2022-08-07T11:10:32.563Z,999.66
2022-08-07T11:11:35.713Z,999.63
2022-08-07T11:12:35.180Z,999.64
2022-08-07T11:14:43.389Z,999.62
2022-08-07T11:14:46.353Z,999.62
2022-08-07T11:15:32.488Z,999.61
2022-08-07T11:16:32.418Z,999.60
2022-08-07T11:17:45.090Z,999.54
2022-08-07T11:18:32.457Z,999.54
2022-08-07T11:19:32.205Z,999.56
2022-08-07T11:20:31.445Z,999.58
2022-08-07T11:21:31.870Z,999.54
2022-08-07T11:22:32.531Z,999.57
2022-08-07T11:23:36.515Z,999.55
2022-08-07T11:24:32.409Z,999.51
2022-08-07T11:25:31.375Z,999.49
2022-08-07T11:26:32.349Z,999.52
2022-08-07T11:28:00.793Z,999.50
2022-08-07T11:28:32.331Z,999.50
2022-08-07T11:29:40.734Z,999.49
2022-08-07T11:30:41.941Z,999.45
2022-08-07T11:31:33.273Z,999.44
2022-08-07T11:32:31.382Z,999.43
2022-08-07T11:33:54.079Z,999.40
2022-08-07T11:34:32.262Z,999.39
2022-08-07T11:35:31.283Z,999.37
2022-08-07T11:36:31.300Z,999.34
2022-08-07T11:37:57.328Z,999.34
2022-08-07T11:38:32.203Z,999.34
2022-08-07T11:39:59.407Z,999.30
2022-08-07T11:40:33.124Z,999.27
2022-08-07T11:42:00.208Z,999.28
2022-08-07T11:42:32.156Z,999.27
2022-08-07T11:43:54.675Z,999.25
2022-08-07T11:44:32.137Z,999.22
2022-08-07T11:45:35.781Z,999.21
2022-08-07T11:46:32.153Z,999.18
2022-08-07T11:47:31.128Z,999.19
2022-08-07T11:48:32.124Z,999.16
2022-08-07T11:50:25.271Z,999.18
2022-08-07T11:50:33.366Z,999.18
2022-08-07T11:51:45.107Z,999.20
2022-08-07T11:52:37.593Z,999.18
2022-08-07T11:53:33.777Z,999.16
2022-08-07T11:54:31.008Z,999.15
2022-08-07T11:56:09.383Z,999.13
2022-08-07T11:56:32.819Z,999.11
2022-08-07T11:58:00.253Z,999.11
2022-08-07T11:58:33.613Z,999.10
2022-08-07T12:00:12.505Z,999.10
2022-08-07T12:00:31.974Z,999.14
2022-08-07T12:01:58.651Z,999.09
2022-08-07T12:02:32.094Z,999.12
2022-08-07T12:03:44.283Z,999.14
2022-08-07T12:04:31.881Z,999.09
2022-08-07T12:05:47.624Z,999.17
2022-08-07T12:06:37.461Z,999.10
2022-08-07T12:07:39.210Z,999.10
2022-08-07T12:08:34.842Z,999.07
2022-08-07T12:09:31.614Z,999.06